createdAt,value
2022-10-18T00:00:04.752Z,12.50
2022-10-18T00:02:31.101Z,10.00
2022-10-18T00:04:57.391Z,11.15
2022-10-18T00:07:23.696Z,8.75
2022-10-18T00:09:49.978Z,6.68
2022-10-18T00:12:16.256Z,10.95
2022-10-18T00:14:42.617Z,10.82
2022-10-18T00:17:08.883Z,9.13
2022-10-18T00:19:35.166Z,10.00
2022-10-18T00:22:01.445Z,8.70
2022-10-18T00:24:27.803Z,13.18
2022-10-18T00:26:54.071Z,18.15
2022-10-18T00:29:20.347Z,12.65
2022-10-18T00:31:46.634Z,7.45
2022-10-18T00:34:14.281Z,9.75
2022-10-18T00:36:40.939Z,15.48
2022-10-18T00:39:08.396Z,11.32
2022-10-18T00:41:35.745Z,9.25
2022-10-18T00:44:27.945Z,12.18
2022-10-18T00:46:59.247Z,14.88
2022-10-18T00:49:28.721Z,11.13
2022-10-18T00:51:59.603Z,12.10
2022-10-18T00:54:26.561Z,29.35
2022-10-18T00:56:52.878Z,12.63
2022-10-18T00:59:19.571Z,16.33
2022-10-18T01:01:46.207Z,10.50
2022-10-18T01:04:14.024Z,12.57
2022-10-18T01:07:06.483Z,14.00
2022-10-18T01:09:38.652Z,15.40
2022-10-18T01:12:34.484Z,13.20
2022-10-18T01:15:06.130Z,17.63
2022-10-18T01:17:40.985Z,16.85
2022-10-18T01:20:17.178Z,16.67
2022-10-18T01:22:45.118Z,16.65
2022-10-18T01:25:27.743Z,16.45
2022-10-18T01:27:56.781Z,19.60
2022-10-18T01:30:34.772Z,23.20
2022-10-18T01:33:05.409Z,19.77
2022-10-18T01:35:33.794Z,19.15
2022-10-18T01:38:01.599Z,16.58
2022-10-18T01:40:29.246Z,15.38
2022-10-18T01:42:55.526Z,12.50
2022-10-18T01:45:23.125Z,14.43
2022-10-18T01:47:49.925Z,13.68
2022-10-18T01:50:27.535Z,12.38
2022-10-18T01:52:53.794Z,10.50
2022-10-18T01:55:24.811Z,11.13
2022-10-18T01:58:00.088Z,14.77
2022-10-18T02:00:31.582Z,8.85
2022-10-18T02:03:12.413Z,12.45
2022-10-18T02:05:56.834Z,8.80
2022-10-18T02:08:23.882Z,8.63
2022-10-18T02:10:50.366Z,12.68
2022-10-18T02:13:18.459Z,9.05
2022-10-18T02:15:46.882Z,7.35
2022-10-18T02:18:15.850Z,6.65
2022-10-18T02:20:42.131Z,5.82
2022-10-18T02:23:09.173Z,3.75
2022-10-18T02:25:35.660Z,6.53
2022-10-18T02:28:02.735Z,5.00
2022-10-18T02:30:52.098Z,5.00
2022-10-18T02:33:40.718Z,5.40
2022-10-18T02:36:13.122Z,9.20
2022-10-18T02:38:40.723Z,5.15
2022-10-18T02:41:07.226Z,4.90
2022-10-18T02:43:33.505Z,6.32
2022-10-18T02:45:59.874Z,6.03
2022-10-18T02:48:26.154Z,10.05
2022-10-18T02:50:52.569Z,7.15
2022-10-18T02:53:18.845Z,10.70
2022-10-18T02:55:45.109Z,8.40
2022-10-18T02:58:11.385Z,7.45
2022-10-18T03:00:37.670Z,6.07
2022-10-18T03:03:03.962Z,5.35
2022-10-18T03:05:30.258Z,4.82
2022-10-18T03:07:57.395Z,4.75
2022-10-18T03:10:23.680Z,6.45
2022-10-18T03:12:49.951Z,6.22
2022-10-18T03:15:16.231Z,6.75
2022-10-18T03:17:42.521Z,7.70
2022-10-18T03:20:09.276Z,7.45
2022-10-18T03:22:35.551Z,5.97
2022-10-18T03:25:01.830Z,10.18
2022-10-18T03:27:28.123Z,6.10
2022-10-18T03:29:54.457Z,5.43
2022-10-18T03:32:20.747Z,7.93
2022-10-18T03:34:47.040Z,7.88
2022-10-18T03:37:13.409Z,6.68
2022-10-18T03:39:39.699Z,7.43
2022-10-18T03:42:05.997Z,9.98
2022-10-18T03:44:32.303Z,7.40
2022-10-18T03:46:58.629Z,6.95
2022-10-18T03:49:24.954Z,9.85
2022-10-18T03:51:51.263Z,8.23
2022-10-18T03:54:17.611Z,9.35
2022-10-18T03:56:43.880Z,7.55
2022-10-18T03:59:10.243Z,9.55
2022-10-18T04:01:36.572Z,11.15
2022-10-18T04:04:02.902Z,13.45
2022-10-18T04:06:29.230Z,9.73
2022-10-18T04:08:55.525Z,6.68
2022-10-18T04:11:21.796Z,9.23
2022-10-18T04:13:48.132Z,6.78
2022-10-18T04:16:14.389Z,8.13
2022-10-18T04:18:40.669Z,9.18
2022-10-18T04:21:06.944Z,8.82
2022-10-18T04:23:36.327Z,11.75
2022-10-18T04:26:05.075Z,11.18
2022-10-18T04:28:36.589Z,13.82
2022-10-18T04:31:02.909Z,12.73
2022-10-18T04:33:29.198Z,12.68
2022-10-18T04:35:55.481Z,12.02
2022-10-18T04:38:21.826Z,13.18
2022-10-18T04:40:48.239Z,12.10
2022-10-18T04:43:14.684Z,10.52
2022-10-18T04:45:41.183Z,9.43
2022-10-18T04:48:08.532Z,10.73
2022-10-18T04:50:34.814Z,9.93
2022-10-18T04:53:01.296Z,11.07
2022-10-18T04:55:27.572Z,11.05
2022-10-18T04:57:53.849Z,17.33
2022-10-18T05:00:20.196Z,15.25
2022-10-18T05:02:46.493Z,12.07
2022-10-18T05:05:14.173Z,18.00
2022-10-18T05:07:59.041Z,13.73
2022-10-18T05:10:25.399Z,18.33
2022-10-18T05:12:51.748Z,12.68
2022-10-18T05:15:18.021Z,14.73
2022-10-18T05:17:44.328Z,12.88
2022-10-18T05:20:10.704Z,13.38
2022-10-18T05:22:37.038Z,15.32
2022-10-18T05:25:03.562Z,13.98
2022-10-18T05:27:29.857Z,16.38
2022-10-18T05:29:57.937Z,14.40
2022-10-18T05:32:26.526Z,18.55
2022-10-18T05:34:52.797Z,26.27
2022-10-18T05:37:19.066Z,20.10
2022-10-18T05:39:45.470Z,16.88
2022-10-18T05:42:11.738Z,19.30
2022-10-18T05:44:38.008Z,22.33
2022-10-18T05:47:04.541Z,17.33
2022-10-18T05:49:30.831Z,17.00
2022-10-18T05:51:57.115Z,25.88
2022-10-18T05:54:23.523Z,23.42
2022-10-18T05:56:49.795Z,20.92
2022-10-18T05:59:16.197Z,23.38
2022-10-18T06:01:42.826Z,20.60
2022-10-18T06:04:10.147Z,21.80
2022-10-18T06:06:36.698Z,21.88
2022-10-18T06:09:03.687Z,24.05
2022-10-18T06:11:30.666Z,22.13
2022-10-18T06:14:00.123Z,22.15
2022-10-18T06:16:32.006Z,23.70
2022-10-18T06:18:59.865Z,21.52
2022-10-18T06:21:26.301Z,18.55
2022-10-18T06:23:53.532Z,21.17
2022-10-18T06:26:20.122Z,21.80
2022-10-18T06:28:46.469Z,31.20
2022-10-18T06:31:13.329Z,23.75
2022-10-18T06:33:39.651Z,25.73
2022-10-18T06:36:06.130Z,21.35
2022-10-18T06:38:32.867Z,22.00
2022-10-18T06:40:59.642Z,24.38
2022-10-18T06:43:26.316Z,27.00
2022-10-18T06:45:52.823Z,22.48
2022-10-18T06:50:52.120Z,22.98
2022-10-18T06:53:18.399Z,23.77
2022-10-18T06:55:44.751Z,25.95
2022-10-18T06:58:11.043Z,21.15
2022-10-18T07:00:37.331Z,24.27
2022-10-18T07:03:03.666Z,22.05
2022-10-18T07:05:30.857Z,21.15
2022-10-18T07:07:57.157Z,22.63
2022-10-18T07:10:26.211Z,23.15
2022-10-18T07:12:59.236Z,20.03
2022-10-18T07:15:38.217Z,17.60
2022-10-18T07:18:04.516Z,19.13
2022-10-18T07:20:30.808Z,19.80
2022-10-18T07:22:57.262Z,18.98
2022-10-18T07:25:25.886Z,15.88
2022-10-18T07:27:54.740Z,18.88
2022-10-18T07:30:21.027Z,17.75
2022-10-18T07:32:47.302Z,17.25
2022-10-18T07:35:13.588Z,14.75
2022-10-18T07:37:39.873Z,11.20
2022-10-18T07:40:06.426Z,15.65
2022-10-18T07:42:34.443Z,14.88
2022-10-18T07:45:00.773Z,15.40
2022-10-18T07:47:29.014Z,15.23
2022-10-18T07:49:57.599Z,15.50
2022-10-18T07:52:23.915Z,15.57
2022-10-18T07:57:21.395Z,13.18
2022-10-18T07:59:48.271Z,15.00
2022-10-18T08:02:14.553Z,12.95
2022-10-18T08:04:41.554Z,16.77
2022-10-18T08:07:07.877Z,14.10
2022-10-18T08:09:34.164Z,17.08
2022-10-18T08:12:00.435Z,17.27
2022-10-18T08:14:26.715Z,18.27
2022-10-18T08:16:53.024Z,15.02
2022-10-18T08:19:19.297Z,14.10
2022-10-18T08:21:45.562Z,12.00
2022-10-18T08:24:11.841Z,16.70
2022-10-18T08:26:38.127Z,12.65
2022-10-18T08:29:20.986Z,17.70
2022-10-18T08:31:49.620Z,10.68
2022-10-18T08:34:19.509Z,12.48
2022-10-18T08:36:46.239Z,14.23
2022-10-18T08:39:12.809Z,11.65
2022-10-18T08:41:39.149Z,11.18
2022-10-18T08:44:20.940Z,12.32
2022-10-18T08:46:52.397Z,9.57
2022-10-18T08:49:29.776Z,8.85
2022-10-18T08:51:57.176Z,15.45
2022-10-18T08:54:32.994Z,10.32
2022-10-18T08:57:00.960Z,10.60
2022-10-18T08:59:32.127Z,9.80
2022-10-18T09:02:10.335Z,9.38
2022-10-18T09:04:44.470Z,10.68
2022-10-18T09:07:25.772Z,11.20
2022-10-18T09:09:59.946Z,13.75
2022-10-18T09:12:44.849Z,13.60
2022-10-18T09:15:35.317Z,12.77
2022-10-18T09:18:04.500Z,14.20
2022-10-18T09:20:34.294Z,12.50
2022-10-18T09:23:40.521Z,10.48
2022-10-18T09:26:11.281Z,11.15
2022-10-18T09:28:56.384Z,10.95
2022-10-18T09:31:25.519Z,10.23
2022-10-18T09:34:04.197Z,7.37
2022-10-18T09:36:35.679Z,9.48
2022-10-18T09:39:22.244Z,8.40
2022-10-18T09:42:05.715Z,7.72
2022-10-18T09:44:37.375Z,11.95
2022-10-18T09:47:11.329Z,10.43
2022-10-18T09:49:45.586Z,8.40
2022-10-18T09:52:25.127Z,10.77
2022-10-18T09:54:55.382Z,12.48
2022-10-18T09:57:21.633Z,11.02
2022-10-18T09:59:49.440Z,12.57
2022-10-18T10:02:21.982Z,10.77
2022-10-18T10:04:48.640Z,13.75
2022-10-18T10:07:17.590Z,10.48
2022-10-18T10:09:46.616Z,10.40
2022-10-18T10:12:32.471Z,11.80
2022-10-18T10:15:18.324Z,10.25
2022-10-18T10:17:45.815Z,11.27
2022-10-18T10:20:20.254Z,9.90
2022-10-18T10:22:47.857Z,12.45
2022-10-18T10:25:22.581Z,12.25
2022-10-18T10:27:48.954Z,9.88
2022-10-18T10:30:26.173Z,9.68
2022-10-18T10:32:53.075Z,10.63
2022-10-18T10:35:33.978Z,10.95
2022-10-18T10:38:07.484Z,9.57
2022-10-18T10:40:35.382Z,8.63
2022-10-18T10:43:12.901Z,10.32
2022-10-18T10:46:01.517Z,9.80
2022-10-18T10:51:04.391Z,7.47
2022-10-18T10:53:33.616Z,7.97
2022-10-18T10:56:00.259Z,8.60
2022-10-18T10:58:28.019Z,9.55
2022-10-18T11:00:55.749Z,6.95
2022-10-18T11:03:31.014Z,7.07
2022-10-18T11:06:00.404Z,5.63
2022-10-18T11:08:28.170Z,3.10
2022-10-18T11:11:17.014Z,3.03
2022-10-18T11:14:13.728Z,4.78
2022-10-18T11:17:08.148Z,2.70
2022-10-18T11:19:39.337Z,2.50
2022-10-18T11:22:09.449Z,3.47
2022-10-18T11:24:36.008Z,1.70
2022-10-18T11:27:21.223Z,2.50
2022-10-18T11:29:55.495Z,3.95
2022-10-18T11:32:24.527Z,1.88
2022-10-18T11:34:53.895Z,1.35
2022-10-18T11:37:38.416Z,3.33
2022-10-18T11:40:23.685Z,3.13
2022-10-18T11:42:53.060Z,1.38
2022-10-18T11:45:22.865Z,2.53
2022-10-18T11:48:07.700Z,1.52
2022-10-18T11:50:42.559Z,1.45
2022-10-18T11:53:08.803Z,4.10
2022-10-18T11:55:41.593Z,1.38
2022-10-18T11:58:14.567Z,3.38
2022-10-18T12:00:46.011Z,1.95
2022-10-18T12:03:38.475Z,3.22
2022-10-18T12:06:07.541Z,2.10
2022-10-18T12:08:36.411Z,1.92
2022-10-18T12:11:06.903Z,4.30
2022-10-18T12:13:36.396Z,2.38
2022-10-18T12:16:03.855Z,1.88
2022-10-18T12:18:30.494Z,2.45
2022-10-18T12:20:58.265Z,2.20
2022-10-18T12:23:32.226Z,2.67
2022-10-18T12:26:02.654Z,2.97
2022-10-18T12:28:34.747Z,4.57
2022-10-18T12:31:04.182Z,2.78
2022-10-18T12:33:35.431Z,4.18
2022-10-18T12:36:04.732Z,2.10
2022-10-18T12:38:32.089Z,5.50
2022-10-18T12:40:58.758Z,2.67
2022-10-18T12:43:26.642Z,3.80
2022-10-18T12:45:55.009Z,2.53
2022-10-18T12:48:45.718Z,2.83
2022-10-18T12:51:19.514Z,5.60
2022-10-18T12:54:00.759Z,2.88
2022-10-18T12:56:30.683Z,3.25
2022-10-18T12:59:15.392Z,4.22
2022-10-18T13:02:05.032Z,2.30
2022-10-18T13:04:32.469Z,2.20
2022-10-18T13:06:59.582Z,5.32
2022-10-18T13:09:25.857Z,2.67
2022-10-18T13:12:10.228Z,2.40
2022-10-18T13:14:53.615Z,3.83
2022-10-18T13:17:47.821Z,4.10
2022-10-18T13:20:32.767Z,2.47
2022-10-18T13:23:02.151Z,3.28
2022-10-18T13:25:34.608Z,5.78
2022-10-18T13:28:19.296Z,2.25
2022-10-18T13:30:57.489Z,3.58
2022-10-18T13:33:32.709Z,2.97
2022-10-18T13:36:06.627Z,7.50
2022-10-18T13:38:32.885Z,3.80
2022-10-18T13:41:06.823Z,7.32
2022-10-18T13:43:52.661Z,2.80
2022-10-18T13:46:20.079Z,4.28
2022-10-18T13:48:47.482Z,3.88
2022-10-18T13:51:25.916Z,5.60
2022-10-18T13:53:58.716Z,4.93
2022-10-18T13:56:34.266Z,4.75
2022-10-18T13:59:13.754Z,3.28
2022-10-18T14:01:55.612Z,6.43
2022-10-18T14:04:39.687Z,6.18
2022-10-18T14:07:07.354Z,12.85
2022-10-18T14:09:44.962Z,4.70
2022-10-18T14:12:16.799Z,4.95
2022-10-18T14:14:43.058Z,5.00
2022-10-18T14:17:28.209Z,3.13
2022-10-18T14:20:01.855Z,5.32
2022-10-18T14:22:36.464Z,4.03
2022-10-18T14:25:02.784Z,4.43
2022-10-18T14:27:32.441Z,3.17
2022-10-18T14:30:16.429Z,4.30
2022-10-18T14:32:44.265Z,5.05
2022-10-18T14:35:31.995Z,3.35
2022-10-18T14:37:59.336Z,5.60
2022-10-18T14:40:34.805Z,2.67
2022-10-18T14:43:01.728Z,3.47
2022-10-18T14:45:28.307Z,4.63
2022-10-18T14:47:54.576Z,5.18
2022-10-18T14:50:30.273Z,6.85
2022-10-18T14:52:57.126Z,4.93
2022-10-18T14:55:24.884Z,4.55
2022-10-18T14:57:51.399Z,6.50
2022-10-18T15:02:54.382Z,6.28
2022-10-18T15:05:24.550Z,11.70
2022-10-18T15:07:51.838Z,6.70
2022-10-18T15:10:20.232Z,6.93
2022-10-18T15:13:04.866Z,10.33
2022-10-18T15:15:34.617Z,6.32
2022-10-18T15:18:01.635Z,8.25
2022-10-18T15:20:31.429Z,9.13
2022-10-18T15:23:16.512Z,9.48
2022-10-18T15:25:42.788Z,5.85
2022-10-18T15:28:21.716Z,8.35
2022-10-18T15:30:48.005Z,5.07
2022-10-18T15:33:21.993Z,7.28
2022-10-18T15:35:48.446Z,9.50
2022-10-18T15:38:16.655Z,7.18
2022-10-18T15:40:43.178Z,9.80
2022-10-18T15:43:24.552Z,9.90
2022-10-18T15:45:54.981Z,11.57
2022-10-18T15:48:21.284Z,8.88
2022-10-18T15:50:49.303Z,9.63
2022-10-18T15:53:21.701Z,8.40
2022-10-18T15:55:49.219Z,11.13
2022-10-18T15:58:20.763Z,12.30
2022-10-18T16:00:48.074Z,9.07
2022-10-18T16:03:14.800Z,30.00
2022-10-18T16:05:41.427Z,10.90
2022-10-18T16:08:17.078Z,14.63
2022-10-18T16:10:43.367Z,11.23
2022-10-18T16:13:09.634Z,13.38
2022-10-18T16:15:35.914Z,13.77
2022-10-18T16:18:02.176Z,12.60
2022-10-18T16:20:28.455Z,17.58
2022-10-18T16:22:54.726Z,15.82
2022-10-18T16:25:21.097Z,24.58
2022-10-18T16:27:47.480Z,12.32
2022-10-18T16:30:18.431Z,12.65
2022-10-18T16:32:46.166Z,11.75
2022-10-18T16:35:13.376Z,12.68
2022-10-18T16:37:39.817Z,15.93
2022-10-18T16:40:26.184Z,16.05
2022-10-18T16:42:52.462Z,18.27
2022-10-18T16:45:18.938Z,18.38
2022-10-18T16:47:45.649Z,17.75
2022-10-18T16:50:16.593Z,17.55
2022-10-18T16:52:43.153Z,18.83
2022-10-18T16:55:16.284Z,16.42
2022-10-18T16:57:43.215Z,16.23
2022-10-18T17:00:18.301Z,17.48
2022-10-18T17:02:44.642Z,18.35
2022-10-18T17:05:10.930Z,17.23
2022-10-18T17:07:37.245Z,21.13
2022-10-18T17:10:03.925Z,19.20
2022-10-18T17:12:30.357Z,21.08
2022-10-18T17:14:56.782Z,23.33
2022-10-18T17:17:23.074Z,17.70
2022-10-18T17:19:49.541Z,22.35
2022-10-18T17:22:15.807Z,21.35
2022-10-18T17:24:42.107Z,19.02
2022-10-18T17:27:09.337Z,20.67
2022-10-18T17:29:35.647Z,21.35
2022-10-18T17:32:03.343Z,23.27
2022-10-18T17:34:29.653Z,21.33
2022-10-18T17:36:55.975Z,24.65
2022-10-18T17:39:22.237Z,25.73
2022-10-18T17:41:48.539Z,22.75
2022-10-18T17:44:14.811Z,21.55
2022-10-18T17:46:42.079Z,27.73
2022-10-18T17:49:08.376Z,23.58
2022-10-18T17:51:34.666Z,25.40
2022-10-18T17:54:00.979Z,26.70
2022-10-18T17:56:32.813Z,25.20
2022-10-18T17:58:59.497Z,23.45
2022-10-18T18:01:26.254Z,22.10
2022-10-18T18:03:56.085Z,25.60
2022-10-18T18:06:23.966Z,31.23
2022-10-18T18:08:50.241Z,22.67
2022-10-18T18:11:16.976Z,28.30
2022-10-18T18:13:43.289Z,28.63
2022-10-18T18:16:13.717Z,36.75
2022-10-18T18:18:40.482Z,22.85
2022-10-18T18:21:06.754Z,28.45
2022-10-18T18:23:33.026Z,28.10
2022-10-18T18:25:59.907Z,31.02
2022-10-18T18:28:26.255Z,25.77
2022-10-18T18:30:52.623Z,30.30
2022-10-18T18:33:18.911Z,30.85
2022-10-18T18:35:53.906Z,27.65
2022-10-18T18:38:20.171Z,32.53
2022-10-18T18:40:46.448Z,26.23
2022-10-18T18:43:23.034Z,36.33
2022-10-18T18:45:50.441Z,35.08
2022-10-18T18:48:19.088Z,35.30
2022-10-18T18:50:51.196Z,30.75
2022-10-18T18:53:17.738Z,29.83
2022-10-18T18:55:44.244Z,30.90
2022-10-18T18:58:10.976Z,32.72
2022-10-18T19:00:44.257Z,23.42
2022-10-18T19:03:11.132Z,26.05
2022-10-18T19:05:37.746Z,28.13
2022-10-18T19:08:04.343Z,28.70
2022-10-18T19:10:30.629Z,26.00
2022-10-18T19:12:57.057Z,29.30
2022-10-18T19:15:23.523Z,28.38
2022-10-18T19:17:49.886Z,25.33
2022-10-18T19:20:17.665Z,27.00
2022-10-18T19:22:44.848Z,24.73
2022-10-18T19:25:11.140Z,24.45
2022-10-18T19:27:37.624Z,24.52
2022-10-18T19:30:05.258Z,27.27
2022-10-18T19:32:31.538Z,29.67
2022-10-18T19:34:57.831Z,31.98
2022-10-18T19:37:24.136Z,35.15
2022-10-18T19:39:50.419Z,32.40
2022-10-18T19:42:19.221Z,33.30
2022-10-18T19:44:49.054Z,34.80
2022-10-18T19:47:15.592Z,23.02
2022-10-18T19:49:44.665Z,29.52
2022-10-18T19:52:12.325Z,28.02
2022-10-18T19:54:38.826Z,24.65
2022-10-18T19:57:05.109Z,31.63
2022-10-18T19:59:31.436Z,22.67
2022-10-18T20:01:58.606Z,33.70
2022-10-18T20:04:24.907Z,28.90
2022-10-18T20:06:51.170Z,23.75
2022-10-18T20:09:20.427Z,38.25
2022-10-18T20:11:47.309Z,31.98
2022-10-18T20:14:13.569Z,32.85
2022-10-18T20:16:39.860Z,31.55
2022-10-18T20:19:07.532Z,29.02
2022-10-18T20:21:37.326Z,28.23
2022-10-18T20:24:04.320Z,29.38
2022-10-18T20:26:30.691Z,25.58
2022-10-18T20:28:58.106Z,25.25
2022-10-18T20:31:29.156Z,31.77
2022-10-18T20:33:56.526Z,28.42
2022-10-18T20:36:23.092Z,29.90
2022-10-18T20:38:49.433Z,32.45
2022-10-18T20:41:17.147Z,39.15
2022-10-18T20:43:43.885Z,35.90
2022-10-18T20:46:10.536Z,34.10
2022-10-18T20:48:38.480Z,31.95
2022-10-18T20:51:09.160Z,43.58
2022-10-18T20:53:39.208Z,38.75
2022-10-18T20:56:06.461Z,36.95
2022-10-18T20:58:33.452Z,30.67
2022-10-18T21:01:11.091Z,34.20
2022-10-18T21:03:38.372Z,37.80
2022-10-18T21:06:11.855Z,32.30
2022-10-18T21:08:38.497Z,45.80
2022-10-18T21:11:04.991Z,32.38
2022-10-18T21:13:31.273Z,32.03
2022-10-18T21:15:57.723Z,30.15
2022-10-18T21:18:27.510Z,31.67
2022-10-18T21:20:53.903Z,36.00
2022-10-18T21:23:20.489Z,29.40
2022-10-18T21:25:47.375Z,41.55
2022-10-18T21:28:14.142Z,36.42
2022-10-18T21:30:40.512Z,32.53
2022-10-18T21:33:07.906Z,41.90
2022-10-18T21:35:35.223Z,28.83
2022-10-18T21:38:01.495Z,29.42
2022-10-18T21:40:27.777Z,32.28
2022-10-18T21:42:54.048Z,27.52
2022-10-18T21:45:20.335Z,30.98
2022-10-18T21:47:46.938Z,26.38
2022-10-18T21:50:13.286Z,28.23
2022-10-18T21:52:39.560Z,28.58
2022-10-18T21:55:07.142Z,23.35
2022-10-18T21:57:34.077Z,22.70
2022-10-18T22:00:00.381Z,29.40
2022-10-18T22:02:26.662Z,24.42
2022-10-18T22:04:53.032Z,25.20
2022-10-18T22:07:19.325Z,26.30
2022-10-18T22:09:45.611Z,25.20
2022-10-18T22:12:11.905Z,25.33
2022-10-18T22:14:38.350Z,24.73
2022-10-18T22:17:04.635Z,22.38
2022-10-18T22:19:30.905Z,25.33
2022-10-18T22:21:57.191Z,25.23
2022-10-18T22:24:23.570Z,19.48
2022-10-18T22:26:51.049Z,23.40
2022-10-18T22:29:18.545Z,23.45
2022-10-18T22:31:46.475Z,24.77
2022-10-18T22:34:14.418Z,27.23
2022-10-18T22:36:40.966Z,32.45
2022-10-18T22:39:07.743Z,24.10
2022-10-18T22:41:34.583Z,24.63
2022-10-18T22:44:03.529Z,27.10
2022-10-18T22:46:30.779Z,26.30
2022-10-18T22:48:57.064Z,22.33
2022-10-18T22:51:23.532Z,26.80
2022-10-18T22:53:49.927Z,21.17
2022-10-18T22:56:17.585Z,13.85
2022-10-18T22:58:43.971Z,17.48
2022-10-18T23:01:11.602Z,18.17
2022-10-18T23:03:38.214Z,14.60
2022-10-18T23:06:05.348Z,20.48
2022-10-18T23:08:32.153Z,18.83
2022-10-18T23:10:59.120Z,14.55
2022-10-18T23:13:26.071Z,15.50
2022-10-18T23:15:52.977Z,13.50
2022-10-18T23:18:19.445Z,19.70
2022-10-18T23:20:45.938Z,18.95
2022-10-18T23:23:12.738Z,22.90
2022-10-18T23:25:39.416Z,22.65
2022-10-18T23:28:05.825Z,19.13
2022-10-18T23:30:32.240Z,22.50
2022-10-18T23:32:58.509Z,20.27
2022-10-18T23:35:24.835Z,23.63
2022-10-18T23:37:51.210Z,21.38
2022-10-18T23:40:17.505Z,16.40
2022-10-18T23:42:43.767Z,17.00
2022-10-18T23:45:10.115Z,16.23
2022-10-18T23:47:36.512Z,18.17
2022-10-18T23:50:02.963Z,18.75
2022-10-18T23:52:29.231Z,24.92
2022-10-18T23:54:55.548Z,16.77
2022-10-18T23:57:21.824Z,17.73
2022-10-18T23:59:48.094Z,20.50
